Terminal Aerodrome Forecast
Issued by NWS

Current Version | Previous Version | Graphics & Text | Print | Product List | Glossary On
Versions: 1 2 3 4 5 6 7 8 9 10 11 12 13 14 15 16 17 18 19
000
FTUS41 KILN 301000 AAB
TAFLUK
TAF AMD
KLUK 301034Z 3011/3106 00000KT P6SM SCT040
      TEMPO 3011/3012 2SM BR SCT002
     FM301500 26008KT P6SM BKN040
     FM302300 VRB03KT P6SM SCT080=

USA.gov is the U.S. government's official web portal to all federal, state and local government web resources and services.